createdAt,value
2023-02-13T00:01:00.092Z,9.40
2023-02-13T00:02:02.517Z,5.30
2023-02-13T00:03:07.246Z,5.30
2023-02-13T00:04:12.123Z,7.90
2023-02-13T00:05:15.919Z,5.30
2023-02-13T00:06:18.734Z,8.40
2023-02-13T00:07:22.437Z,5.40
2023-02-13T00:08:25.053Z,5.60
2023-02-13T00:09:28.762Z,5.50
2023-02-13T00:10:32.734Z,5.40
2023-02-13T00:11:36.131Z,5.50
2023-02-13T00:12:38.607Z,5.20
2023-02-13T00:13:42.674Z,5.20
2023-02-13T00:14:45.274Z,5.40
2023-02-13T00:15:57.735Z,5.90
2023-02-13T00:17:00.354Z,5.10
2023-02-13T00:18:05.604Z,5.20
2023-02-13T00:19:08.943Z,5.20
2023-02-13T00:20:13.187Z,5.20
2023-02-13T00:21:16.548Z,5.20
2023-02-13T00:22:20.124Z,5.20
2023-02-13T00:23:22.809Z,5.20
2023-02-13T00:24:26.588Z,5.20
2023-02-13T00:25:29.431Z,5.20
2023-02-13T00:26:34.494Z,5.20
2023-02-13T00:27:37.112Z,5.20
2023-02-13T00:28:41.516Z,5.30
2023-02-13T00:29:44.681Z,5.20
2023-02-13T00:30:48.350Z,5.30
2023-02-13T00:31:51.350Z,5.20
2023-02-13T00:34:01.155Z,5.20
2023-02-13T00:35:04.567Z,5.20
2023-02-13T00:36:11.889Z,9.00
2023-02-13T00:37:14.737Z,5.20
2023-02-13T00:38:18.278Z,5.10
2023-02-13T00:39:22.051Z,5.10
2023-02-13T00:40:26.791Z,5.20
2023-02-13T00:41:29.478Z,5.30
2023-02-13T00:42:34.664Z,5.20
2023-02-13T00:43:37.595Z,5.20
2023-02-13T00:44:41.391Z,9.30
2023-02-13T00:45:44.076Z,5.30
2023-02-13T00:46:47.748Z,5.10
2023-02-13T00:47:50.563Z,5.10
2023-02-13T00:48:57.396Z,5.10
2023-02-13T00:50:00.270Z,6.00
2023-02-13T00:51:05.546Z,9.50
2023-02-13T00:52:08.353Z,6.00
2023-02-13T00:53:12.061Z,5.30
2023-02-13T00:54:14.588Z,5.30
2023-02-13T00:56:24.418Z,5.50
2023-02-13T00:57:27.833Z,5.40
2023-02-13T00:58:32.010Z,5.40
2023-02-13T00:59:35.883Z,8.40
2023-02-13T01:00:38.612Z,5.50
2023-02-13T01:01:42.631Z,5.50
2023-02-13T01:02:45.223Z,5.50
2023-02-13T01:03:51.553Z,5.50
2023-02-13T01:04:54.031Z,4.60
2023-02-13T01:05:58.709Z,5.30
2023-02-13T01:08:06.143Z,6.70
2023-02-13T01:10:13.885Z,5.40
2023-02-13T01:11:16.880Z,6.00
2023-02-13T01:12:21.083Z,5.40
2023-02-13T01:14:32.467Z,3.70
2023-02-13T01:15:35.932Z,5.40
2023-02-13T01:16:39.988Z,5.40
2023-02-13T01:17:42.842Z,5.40
2023-02-13T01:18:46.790Z,5.40
2023-02-13T01:19:49.398Z,5.50
2023-02-13T01:21:03.740Z,5.50
2023-02-13T01:24:14.566Z,5.50
2023-02-13T01:25:18.881Z,5.50
2023-02-13T01:26:23.679Z,5.60
2023-02-13T01:27:28.651Z,5.50
2023-02-13T01:28:31.916Z,5.50
2023-02-13T01:29:36.990Z,5.50
2023-02-13T01:30:39.811Z,9.60
2023-02-13T01:31:43.929Z,5.40
2023-02-13T01:32:48.163Z,5.40
2023-02-13T01:33:51.825Z,6.40
2023-02-13T01:34:57.482Z,5.40
2023-02-13T01:36:08.196Z,5.50
2023-02-13T01:38:17.398Z,5.50
2023-02-13T01:39:21.226Z,5.60
2023-02-13T01:40:24.043Z,5.60
2023-02-13T01:41:29.145Z,4.90
2023-02-13T01:42:35.286Z,5.50
2023-02-13T01:43:53.160Z,5.50
2023-02-13T01:45:00.024Z,5.40
2023-02-13T01:46:04.898Z,5.50
2023-02-13T01:47:09.700Z,5.50
2023-02-13T01:48:19.977Z,5.40
2023-02-13T01:49:25.965Z,5.50
2023-02-13T01:50:38.033Z,6.30
2023-02-13T01:51:42.985Z,5.40
2023-02-13T01:52:52.715Z,8.20
2023-02-13T01:54:01.132Z,5.50
2023-02-13T01:55:06.580Z,8.20
2023-02-13T01:56:15.257Z,2.20
2023-02-13T01:57:24.825Z,5.50
2023-02-13T01:58:32.688Z,5.60
2023-02-13T01:59:43.099Z,5.60
2023-02-13T02:00:50.037Z,5.60
2023-02-13T02:01:55.570Z,6.20
2023-02-13T02:03:07.721Z,5.70
2023-02-13T02:04:17.129Z,5.60
2023-02-13T02:05:24.297Z,5.60
2023-02-13T02:06:32.972Z,5.60
2023-02-13T02:07:39.927Z,5.50
2023-02-13T02:08:44.243Z,5.60
2023-02-13T02:09:56.211Z,5.60
2023-02-13T02:11:12.883Z,5.70
2023-02-13T02:12:25.510Z,5.60
2023-02-13T02:13:29.478Z,5.60
2023-02-13T02:14:41.285Z,9.40
2023-02-13T02:15:51.381Z,5.60
2023-02-13T02:16:54.852Z,5.90
2023-02-13T02:17:58.821Z,5.70
2023-02-13T02:19:05.704Z,5.70
2023-02-13T02:20:23.473Z,6.70
2023-02-13T02:22:08.339Z,5.50
2023-02-13T02:23:49.160Z,5.50
2023-02-13T02:25:33.965Z,8.60
2023-02-13T02:27:22.370Z,5.60
2023-02-13T02:29:13.038Z,9.20
2023-02-13T02:31:08.616Z,5.40
2023-02-13T02:33:04.123Z,5.40
2023-02-13T02:34:26.039Z,5.50
2023-02-13T02:35:38.233Z,5.40
2023-02-13T02:37:01.789Z,5.40
2023-02-13T02:38:18.840Z,5.50
2023-02-13T02:39:41.121Z,5.50
2023-02-13T02:41:01.671Z,5.60
2023-02-13T02:42:26.023Z,5.60
2023-02-13T02:43:49.179Z,5.50
2023-02-13T02:45:05.878Z,10.10
2023-02-13T02:46:17.848Z,5.50
2023-02-13T02:47:46.887Z,5.60
2023-02-13T02:49:20.845Z,5.60
2023-02-13T02:50:36.694Z,5.60
2023-02-13T02:51:49.606Z,5.60
2023-02-13T02:53:05.442Z,5.70
2023-02-13T02:54:41.265Z,5.70
2023-02-13T02:55:57.027Z,5.70
2023-02-13T02:57:09.392Z,5.80
2023-02-13T02:58:53.753Z,5.80
2023-02-13T03:00:18.539Z,5.50
2023-02-13T03:01:45.586Z,5.50
2023-02-13T03:03:07.428Z,5.70
2023-02-13T03:04:41.729Z,5.60
2023-02-13T03:06:08.602Z,5.70
2023-02-13T03:07:17.153Z,5.70
2023-02-13T03:08:40.534Z,5.80
2023-02-13T03:10:07.044Z,5.70
2023-02-13T03:11:29.045Z,5.80
2023-02-13T03:12:57.586Z,5.70
2023-02-13T03:14:05.377Z,5.70
2023-02-13T03:15:09.178Z,5.80
2023-02-13T03:16:37.714Z,5.70
2023-02-13T03:17:59.538Z,5.70
2023-02-13T03:19:21.310Z,1.60
2023-02-13T03:20:56.508Z,5.70
2023-02-13T03:22:23.770Z,5.70
2023-02-13T03:23:41.859Z,5.60
2023-02-13T03:24:58.700Z,5.70
2023-02-13T03:26:46.333Z,5.60
2023-02-13T03:28:16.404Z,6.50
2023-02-13T03:29:51.801Z,5.80
2023-02-13T03:31:22.781Z,5.70
2023-02-13T03:32:35.933Z,5.70
2023-02-13T03:33:57.774Z,5.70
2023-02-13T03:35:31.648Z,5.60
2023-02-13T03:37:19.888Z,5.70
2023-02-13T03:38:31.534Z,5.70
2023-02-13T03:39:47.218Z,5.60
2023-02-13T03:41:15.584Z,5.70
2023-02-13T03:42:29.134Z,5.70
2023-02-13T03:43:41.020Z,5.60
2023-02-13T03:45:11.244Z,5.70
2023-02-13T03:46:16.776Z,5.60
2023-02-13T03:47:20.741Z,5.60
2023-02-13T03:48:47.338Z,5.60
2023-02-13T03:50:05.701Z,5.60
2023-02-13T03:51:12.743Z,1.90
2023-02-13T03:52:26.111Z,5.60
2023-02-13T03:53:34.407Z,5.60
2023-02-13T03:55:03.043Z,5.60
2023-02-13T03:56:27.721Z,5.60
2023-02-13T03:57:53.171Z,5.60
2023-02-13T03:59:16.076Z,5.80
2023-02-13T04:00:22.801Z,5.70
2023-02-13T04:01:30.486Z,5.60
2023-02-13T04:02:40.766Z,5.70
2023-02-13T04:03:50.872Z,5.80
2023-02-13T04:05:05.758Z,5.70
2023-02-13T04:06:13.799Z,5.70
2023-02-13T04:07:30.782Z,5.80
2023-02-13T04:08:33.947Z,5.60
2023-02-13T04:09:42.018Z,5.70
2023-02-13T04:10:52.932Z,5.70
2023-02-13T04:12:08.017Z,8.70
2023-02-13T04:13:19.180Z,2.60
2023-02-13T04:14:29.584Z,5.80
2023-02-13T04:15:39.355Z,5.80
2023-02-13T04:16:49.195Z,5.70
2023-02-13T04:17:58.032Z,5.70
2023-02-13T04:19:08.520Z,5.80
2023-02-13T04:20:13.084Z,5.70
2023-02-13T04:22:21.180Z,5.80
2023-02-13T04:23:24.984Z,5.80
2023-02-13T04:24:28.658Z,6.50
2023-02-13T04:25:32.592Z,1.50
2023-02-13T04:26:38.169Z,5.80
2023-02-13T04:27:42.071Z,5.80
2023-02-13T04:28:46.379Z,6.60
2023-02-13T04:29:49.304Z,4.50
2023-02-13T04:30:52.856Z,5.80
2023-02-13T04:31:55.442Z,5.90
2023-02-13T04:34:04.454Z,5.90
2023-02-13T04:35:11.738Z,7.80
2023-02-13T04:36:14.184Z,5.80
2023-02-13T04:37:17.722Z,5.90
2023-02-13T04:38:22.634Z,5.70
2023-02-13T04:39:27.275Z,5.80
2023-02-13T04:40:31.132Z,5.80
2023-02-13T04:41:33.686Z,5.90
2023-02-13T04:42:37.072Z,5.90
2023-02-13T04:43:39.682Z,5.80
2023-02-13T04:44:43.497Z,5.80
2023-02-13T04:45:49.522Z,5.70
2023-02-13T04:46:53.352Z,5.80
2023-02-13T04:47:57.560Z,5.80
2023-02-13T04:49:00.926Z,5.70
2023-02-13T04:50:03.526Z,5.70
2023-02-13T04:51:09.836Z,5.70
2023-02-13T04:52:12.744Z,5.70
2023-02-13T04:53:16.565Z,5.60
2023-02-13T04:54:20.761Z,5.70
2023-02-13T04:55:24.908Z,5.70
2023-02-13T04:56:27.381Z,5.70
2023-02-13T04:57:31.515Z,5.70
2023-02-13T04:58:34.045Z,8.90
2023-02-13T04:59:37.825Z,5.80
2023-02-13T05:01:44.391Z,5.90
2023-02-13T05:02:47.298Z,5.90
2023-02-13T05:03:51.342Z,5.80
2023-02-13T05:04:53.796Z,5.80
2023-02-13T05:05:57.492Z,5.90
2023-02-13T05:07:00.026Z,5.80
2023-02-13T05:08:04.125Z,5.90
2023-02-13T05:09:06.482Z,6.00
2023-02-13T05:10:12.884Z,5.90
2023-02-13T05:11:15.586Z,5.90
2023-02-13T05:12:19.066Z,5.90
2023-02-13T05:13:22.445Z,5.90
2023-02-13T05:15:29.329Z,5.90
2023-02-13T05:17:35.878Z,5.90
2023-02-13T05:18:39.469Z,5.90
2023-02-13T05:19:42.072Z,6.00
2023-02-13T05:21:05.864Z,5.70
2023-02-13T05:22:30.677Z,5.80
2023-02-13T05:23:33.789Z,6.30
2023-02-13T05:24:37.169Z,5.70
2023-02-13T05:25:42.868Z,5.80
2023-02-13T05:26:46.339Z,5.80
2023-02-13T05:27:49.419Z,5.70
2023-02-13T05:29:10.630Z,5.80
2023-02-13T05:30:15.589Z,5.90
2023-02-13T05:31:18.501Z,5.80
2023-02-13T05:32:22.169Z,5.80
2023-02-13T05:33:25.658Z,5.80
2023-02-13T05:34:30.460Z,5.80
2023-02-13T05:35:33.528Z,5.80
2023-02-13T05:36:37.126Z,6.10
2023-02-13T05:37:40.708Z,5.80
2023-02-13T05:38:43.185Z,5.80
2023-02-13T05:39:46.884Z,5.80
2023-02-13T05:40:53.742Z,5.80
2023-02-13T05:41:57.259Z,5.80
2023-02-13T05:42:59.675Z,5.80
2023-02-13T05:44:03.228Z,5.70
2023-02-13T05:45:07.257Z,5.70
2023-02-13T05:46:11.984Z,5.80
2023-02-13T05:47:14.472Z,6.40
2023-02-13T05:48:18.143Z,5.80
2023-02-13T05:49:23.174Z,5.80
2023-02-13T05:50:25.881Z,5.80
2023-02-13T05:51:32.132Z,5.80
2023-02-13T05:52:34.544Z,5.70
2023-02-13T05:53:38.288Z,4.00
2023-02-13T05:54:42.252Z,6.20
2023-02-13T05:55:45.126Z,5.80
2023-02-13T05:57:57.484Z,9.00
2023-02-13T05:59:03.169Z,5.60
2023-02-13T06:00:07.703Z,5.50
2023-02-13T06:01:11.367Z,5.50
2023-02-13T06:03:17.876Z,5.40
2023-02-13T06:04:21.283Z,9.20
2023-02-13T06:05:24.473Z,5.50
2023-02-13T06:06:28.190Z,5.40
2023-02-13T06:07:30.587Z,5.50
2023-02-13T06:08:34.367Z,5.50
2023-02-13T06:09:36.954Z,5.60
2023-02-13T06:10:40.870Z,5.60
2023-02-13T06:12:49.151Z,5.70
2023-02-13T06:13:52.926Z,5.70
2023-02-13T06:14:55.693Z,5.70
2023-02-13T06:15:59.845Z,5.70
2023-02-13T06:17:03.854Z,5.60
2023-02-13T06:18:06.695Z,5.70
2023-02-13T06:19:10.574Z,5.50
2023-02-13T06:20:13.370Z,7.10
2023-02-13T06:21:18.098Z,5.50
2023-02-13T06:22:21.108Z,5.60
2023-02-13T06:23:24.677Z,5.60
2023-02-13T06:24:27.323Z,5.70
2023-02-13T06:25:30.873Z,5.70
2023-02-13T06:26:34.714Z,5.80
2023-02-13T06:27:37.638Z,5.80
2023-02-13T06:28:42.646Z,6.20
2023-02-13T06:29:45.231Z,5.80
2023-02-13T06:30:50.257Z,9.60
2023-02-13T06:31:53.167Z,8.70
2023-02-13T06:32:56.943Z,5.90
2023-02-13T06:33:59.574Z,3.40
2023-02-13T06:35:05.489Z,5.80
2023-02-13T06:36:09.416Z,5.90
2023-02-13T06:37:12.099Z,5.90
2023-02-13T06:38:19.099Z,5.80
2023-02-13T06:39:22.933Z,1.70
2023-02-13T06:40:25.616Z,5.70
2023-02-13T06:41:29.334Z,5.70
2023-02-13T06:42:32.128Z,5.70
2023-02-13T06:43:35.897Z,5.70
2023-02-13T06:44:39.958Z,5.90
2023-02-13T06:45:43.709Z,5.80
2023-02-13T06:46:46.361Z,5.90
2023-02-13T06:47:52.138Z,5.90
2023-02-13T06:48:55.739Z,5.90
2023-02-13T06:49:58.427Z,5.40
2023-02-13T06:51:02.851Z,6.50
2023-02-13T06:52:06.333Z,5.90
2023-02-13T06:53:10.548Z,5.90
2023-02-13T06:54:14.651Z,9.20
2023-02-13T06:55:18.112Z,5.90
2023-02-13T06:56:21.916Z,5.90
2023-02-13T06:57:24.277Z,5.90
2023-02-13T06:58:28.312Z,6.00
2023-02-13T06:59:31.038Z,5.90
2023-02-13T07:00:37.609Z,2.60
2023-02-13T07:01:39.994Z,5.70
2023-02-13T07:02:45.249Z,6.20
2023-02-13T07:03:49.102Z,5.80
2023-02-13T07:04:52.953Z,5.90
2023-02-13T07:05:56.810Z,6.00
2023-02-13T07:07:00.230Z,6.00
2023-02-13T07:08:03.769Z,6.00
2023-02-13T07:09:07.633Z,2.10
2023-02-13T07:10:13.281Z,6.10
2023-02-13T07:11:21.212Z,6.00
2023-02-13T07:12:23.686Z,6.10
2023-02-13T07:13:27.748Z,6.10
2023-02-13T07:14:30.836Z,6.10
2023-02-13T07:15:37.536Z,6.10
2023-02-13T07:16:39.959Z,6.10
2023-02-13T07:17:43.838Z,6.10
2023-02-13T07:18:47.579Z,6.00
2023-02-13T07:19:50.513Z,6.00
2023-02-13T07:20:54.152Z,6.00
2023-02-13T07:21:56.712Z,6.00
2023-02-13T07:23:01.291Z,6.00
2023-02-13T07:24:04.865Z,6.00
2023-02-13T07:25:12.304Z,6.00
2023-02-13T07:26:16.428Z,6.60
2023-02-13T07:27:19.948Z,6.10
2023-02-13T07:28:23.481Z,6.20
2023-02-13T07:29:28.669Z,6.10
2023-02-13T07:30:33.061Z,6.10
2023-02-13T07:31:39.358Z,6.30
2023-02-13T07:32:43.154Z,6.40
2023-02-13T07:33:49.404Z,7.60
2023-02-13T07:35:01.254Z,6.50
2023-02-13T07:36:10.598Z,6.50
2023-02-13T07:37:14.196Z,7.90
2023-02-13T07:38:21.483Z,6.00
2023-02-13T07:39:26.274Z,6.70
2023-02-13T07:40:30.031Z,6.80
2023-02-13T07:41:32.946Z,6.90
2023-02-13T07:42:37.106Z,7.00
2023-02-13T07:43:39.655Z,7.10
2023-02-13T07:44:43.510Z,7.20
2023-02-13T07:45:47.149Z,4.70
2023-02-13T07:46:52.306Z,7.30
2023-02-13T07:47:57.188Z,10.00
2023-02-13T07:48:59.665Z,7.50
2023-02-13T07:50:05.976Z,7.90
2023-02-13T07:51:09.412Z,7.60
2023-02-13T07:52:13.235Z,7.40
2023-02-13T07:53:17.196Z,7.40
2023-02-13T07:54:21.112Z,7.30
2023-02-13T07:55:25.480Z,10.90
2023-02-13T07:56:28.183Z,4.80
2023-02-13T07:57:32.912Z,7.50
2023-02-13T07:58:37.592Z,7.50
2023-02-13T07:59:41.520Z,7.50
2023-02-13T08:00:45.270Z,8.00
2023-02-13T08:01:47.997Z,7.50
2023-02-13T08:02:53.479Z,7.60
2023-02-13T08:03:57.188Z,7.40
2023-02-13T08:05:00.787Z,7.40
2023-02-13T08:06:07.332Z,7.40
2023-02-13T08:07:11.262Z,8.30
2023-02-13T08:08:14.017Z,7.30
2023-02-13T08:09:40.781Z,7.30
2023-02-13T08:11:01.908Z,7.30
2023-02-13T08:12:08.283Z,7.20
2023-02-13T08:13:15.815Z,7.10
2023-02-13T08:14:18.548Z,7.00
2023-02-13T08:15:22.091Z,7.70
2023-02-13T08:16:25.281Z,6.90
2023-02-13T08:17:28.707Z,6.90
2023-02-13T08:18:34.258Z,6.90
2023-02-13T08:19:37.853Z,6.90
2023-02-13T08:20:41.387Z,6.90
2023-02-13T08:21:44.228Z,6.90
2023-02-13T08:22:47.612Z,8.50
2023-02-13T08:23:52.465Z,7.00
2023-02-13T08:24:55.931Z,6.90
2023-02-13T08:26:01.344Z,6.80
2023-02-13T08:27:04.955Z,6.90
2023-02-13T08:28:08.570Z,6.90
2023-02-13T08:29:12.797Z,6.90
2023-02-13T08:30:16.840Z,7.00
2023-02-13T08:31:20.880Z,6.90
2023-02-13T08:32:24.789Z,6.90
2023-02-13T08:33:28.390Z,7.00
2023-02-13T08:34:33.513Z,4.50
2023-02-13T08:35:37.188Z,7.00
2023-02-13T08:36:40.630Z,7.10
2023-02-13T08:37:46.009Z,7.10
2023-02-13T08:38:51.569Z,7.20
2023-02-13T08:39:56.158Z,7.30
2023-02-13T08:40:59.949Z,7.30
2023-02-13T08:42:04.138Z,7.30
2023-02-13T08:43:08.551Z,7.40
2023-02-13T08:44:12.436Z,7.50
2023-02-13T08:45:15.378Z,5.70
2023-02-13T08:46:19.582Z,7.70
2023-02-13T08:47:23.188Z,7.80
2023-02-13T08:48:26.075Z,7.80
2023-02-13T08:49:29.570Z,7.90
2023-02-13T08:50:37.050Z,7.90
2023-02-13T08:51:41.475Z,10.10
2023-02-13T08:52:44.883Z,8.00
2023-02-13T08:53:48.483Z,8.10
2023-02-13T08:54:51.964Z,8.20
2023-02-13T08:55:57.939Z,8.20
2023-02-13T08:57:01.812Z,8.30
2023-02-13T08:58:07.368Z,8.30
2023-02-13T09:01:20.571Z,8.60
2023-02-13T09:02:23.110Z,8.60
2023-02-13T09:03:27.138Z,8.60
2023-02-13T09:04:30.540Z,9.70
2023-02-13T09:05:34.530Z,8.50
2023-02-13T09:06:38.720Z,8.40
2023-02-13T09:07:42.550Z,8.50
2023-02-13T09:08:46.328Z,8.40
2023-02-13T09:10:58.318Z,8.40
2023-02-13T09:12:02.316Z,8.30
2023-02-13T09:13:06.490Z,8.30
2023-02-13T09:14:10.155Z,8.30
2023-02-13T09:15:13.991Z,8.20
2023-02-13T09:16:17.819Z,8.30
2023-02-13T09:17:20.739Z,8.10
2023-02-13T09:18:24.437Z,5.60
2023-02-13T09:19:28.246Z,8.00
2023-02-13T09:20:31.701Z,7.90
2023-02-13T09:21:36.569Z,7.90
2023-02-13T09:22:40.561Z,7.90
2023-02-13T09:23:45.603Z,7.80
2023-02-13T09:24:49.263Z,7.80
2023-02-13T09:25:52.680Z,7.80
2023-02-13T09:26:56.795Z,7.80
2023-02-13T09:28:00.777Z,7.80
2023-02-13T09:29:04.759Z,7.60
2023-02-13T09:30:09.160Z,7.50
2023-02-13T09:31:16.635Z,8.50
2023-02-13T09:32:20.386Z,7.60
2023-02-13T09:33:23.436Z,7.60
2023-02-13T09:34:28.344Z,7.70
2023-02-13T09:35:31.098Z,7.70
2023-02-13T09:36:36.806Z,7.70
2023-02-13T09:37:39.278Z,9.10
2023-02-13T09:38:44.426Z,7.70
2023-02-13T09:39:48.309Z,7.70
2023-02-13T09:40:57.778Z,7.70
2023-02-13T09:42:03.407Z,7.70
2023-02-13T09:43:13.411Z,7.60
2023-02-13T09:44:39.078Z,10.60
2023-02-13T09:45:46.617Z,7.60
2023-02-13T09:46:50.602Z,4.70
2023-02-13T09:47:55.394Z,7.60
2023-02-13T09:49:04.530Z,7.50
2023-02-13T09:50:16.953Z,9.70
2023-02-13T09:51:23.790Z,7.50
2023-02-13T09:52:32.549Z,7.50
2023-02-13T09:53:38.420Z,7.50
2023-02-13T09:54:42.084Z,7.50
2023-02-13T09:55:53.983Z,7.50
2023-02-13T09:57:02.736Z,7.50
2023-02-13T10:03:15.684Z,7.60
2023-02-13T10:04:30.973Z,7.50
2023-02-13T10:05:51.326Z,3.60
2023-02-13T10:07:12.872Z,7.60
2023-02-13T10:08:35.534Z,7.70
2023-02-13T10:09:49.767Z,7.70
2023-02-13T10:11:00.492Z,7.80
2023-02-13T10:12:40.968Z,7.80
2023-02-13T10:14:03.650Z,7.90
2023-02-13T10:15:22.791Z,8.00
2023-02-13T10:16:34.485Z,8.20
2023-02-13T10:17:43.342Z,8.20
2023-02-13T10:18:53.696Z,7.50
2023-02-13T10:20:04.535Z,8.40
2023-02-13T10:21:11.462Z,8.40
2023-02-13T10:22:19.873Z,8.40
2023-02-13T10:23:30.392Z,8.20
2023-02-13T10:24:43.184Z,8.30
2023-02-13T10:25:55.652Z,8.40
2023-02-13T10:27:01.496Z,8.40
2023-02-13T10:28:13.638Z,8.40
2023-02-13T10:29:43.546Z,8.50
2023-02-13T10:30:54.542Z,8.50
2023-02-13T10:32:04.241Z,6.60
2023-02-13T10:33:25.204Z,8.50
2023-02-13T10:34:35.226Z,8.60
2023-02-13T10:35:40.229Z,11.80
2023-02-13T10:36:48.722Z,11.80
2023-02-13T10:55:25.852Z,8.40
2023-02-13T11:01:33.852Z,8.10
2023-02-13T11:04:46.289Z,8.10
2023-02-13T11:07:00.389Z,7.90
2023-02-13T11:08:04.595Z,8.00
2023-02-13T11:11:32.861Z,7.80
2023-02-13T11:18:26.433Z,7.80
2023-02-13T11:21:47.180Z,7.80
2023-02-13T11:26:13.353Z,7.80
2023-02-13T11:35:31.392Z,7.60
2023-02-13T11:37:41.262Z,7.40
2023-02-13T11:38:44.460Z,7.50
2023-02-13T11:39:51.488Z,7.60
2023-02-13T11:41:08.400Z,7.90
2023-02-13T11:42:18.213Z,8.00
2023-02-13T11:43:30.632Z,8.20
2023-02-13T11:45:39.262Z,8.30
2023-02-13T11:46:50.468Z,8.10
2023-02-13T11:47:57.227Z,8.20
2023-02-13T11:49:04.686Z,8.30
2023-02-13T11:50:22.451Z,8.40
2023-02-13T11:51:38.043Z,8.40
2023-02-13T11:52:41.846Z,8.40
2023-02-13T11:53:45.454Z,8.60
2023-02-13T11:54:57.547Z,8.70
2023-02-13T11:56:11.514Z,8.70
2023-02-13T11:57:23.032Z,9.10
2023-02-13T11:58:30.860Z,9.00
2023-02-13T11:59:42.314Z,9.30
2023-02-13T12:00:46.645Z,9.30
2023-02-13T12:02:04.555Z,9.40
2023-02-13T12:03:28.961Z,9.50
2023-02-13T12:04:32.832Z,9.80
2023-02-13T12:05:37.537Z,9.80
2023-02-13T12:07:47.589Z,9.90
2023-02-13T12:08:52.510Z,10.00
2023-02-13T12:10:04.184Z,10.20
2023-02-13T12:11:22.639Z,13.20
2023-02-13T12:12:36.573Z,10.30
2023-02-13T12:13:41.074Z,10.40
2023-02-13T12:14:47.571Z,10.50
2023-02-13T12:16:01.161Z,10.10
2023-02-13T12:17:14.371Z,10.00
2023-02-13T12:18:31.698Z,10.00
2023-02-13T12:19:40.700Z,10.10
2023-02-13T12:20:55.279Z,10.00
2023-02-13T12:22:24.258Z,10.00
2023-02-13T12:23:40.488Z,9.60
2023-02-13T12:25:12.668Z,9.60
2023-02-13T12:26:28.282Z,9.90
2023-02-13T12:29:32.339Z,10.00
2023-02-13T12:31:01.326Z,10.40
2023-02-13T12:32:19.157Z,13.20
2023-02-13T12:33:43.535Z,10.60
2023-02-13T12:35:20.669Z,10.60
2023-02-13T12:36:33.779Z,10.60
2023-02-13T12:37:59.484Z,10.80
2023-02-13T12:39:28.988Z,11.00
2023-02-13T12:41:06.726Z,14.90
2023-02-13T12:42:31.676Z,11.10
2023-02-13T12:44:12.245Z,11.10
2023-02-13T12:45:34.952Z,11.10
2023-02-13T12:46:52.893Z,10.80
2023-02-13T12:48:14.610Z,10.80
2023-02-13T12:49:40.211Z,10.80
2023-02-13T12:51:09.349Z,10.90
2023-02-13T12:52:30.520Z,10.80
2023-02-13T12:53:59.548Z,10.40
2023-02-13T12:55:24.247Z,10.20
2023-02-13T12:56:57.976Z,10.20
2023-02-13T12:58:24.964Z,10.20
2023-02-13T12:59:47.488Z,10.10
2023-02-13T13:01:05.638Z,10.00
2023-02-13T13:02:40.666Z,10.20
2023-02-13T13:03:56.123Z,13.40
2023-02-13T13:05:16.047Z,10.20
2023-02-13T13:06:52.072Z,10.20
2023-02-13T13:08:23.627Z,10.40
2023-02-13T13:10:04.374Z,10.40
2023-02-13T13:11:34.603Z,10.40
2023-02-13T13:12:49.908Z,10.40
2023-02-13T13:14:10.483Z,10.10
2023-02-13T13:15:32.383Z,10.20
2023-02-13T13:16:47.046Z,10.20
2023-02-13T13:18:04.247Z,10.10
2023-02-13T13:19:20.201Z,10.20
2023-02-13T13:20:52.229Z,10.40
2023-02-13T13:22:03.656Z,10.30
2023-02-13T13:23:13.294Z,6.70
2023-02-13T13:24:36.854Z,9.80
2023-02-13T13:25:50.072Z,9.90
2023-02-13T13:26:57.620Z,10.80
2023-02-13T13:28:09.373Z,6.60
2023-02-13T13:29:21.218Z,9.50
2023-02-13T13:30:30.893Z,9.50
2023-02-13T13:31:38.227Z,9.60
2023-02-13T13:32:44.442Z,9.70
2023-02-13T13:33:49.795Z,9.80
2023-02-13T13:34:53.775Z,9.90
2023-02-13T13:36:06.733Z,9.90
2023-02-13T13:37:24.058Z,9.90
2023-02-13T13:38:43.903Z,9.90
2023-02-13T13:39:57.335Z,10.00
2023-02-13T13:41:10.653Z,9.90
2023-02-13T13:42:21.761Z,9.80
2023-02-13T13:43:33.465Z,9.80
2023-02-13T13:45:08.305Z,13.70
2023-02-13T13:46:21.119Z,9.80
2023-02-13T13:47:49.808Z,11.80
2023-02-13T13:49:13.683Z,9.60
2023-02-13T13:50:25.547Z,9.30
2023-02-13T13:51:30.871Z,9.20
2023-02-13T13:52:37.580Z,9.20
2023-02-13T13:54:21.091Z,9.50
2023-02-13T13:55:58.691Z,9.70
2023-02-13T13:57:12.760Z,9.60
2023-02-13T13:58:24.364Z,9.70
2023-02-13T13:59:59.806Z,9.90
2023-02-13T14:01:35.154Z,10.00
2023-02-13T14:02:49.165Z,10.10
2023-02-13T14:03:55.840Z,9.10
2023-02-13T14:05:08.658Z,7.20
2023-02-13T14:06:14.930Z,12.90
2023-02-13T14:07:25.978Z,10.20
2023-02-13T14:08:55.126Z,9.90
2023-02-13T14:09:59.208Z,10.00
2023-02-13T14:11:04.316Z,9.90
2023-02-13T14:12:39.117Z,9.80
2023-02-13T14:13:43.028Z,9.40
2023-02-13T14:14:47.554Z,9.20
2023-02-13T14:15:52.885Z,8.90
2023-02-13T14:17:00.143Z,8.90
2023-02-13T14:18:12.161Z,8.80
2023-02-13T14:19:30.602Z,8.90
2023-02-13T14:20:41.738Z,8.80
2023-02-13T14:21:46.382Z,8.80
2023-02-13T14:22:49.776Z,7.80
2023-02-13T14:23:54.747Z,8.80
2023-02-13T14:25:02.828Z,8.70
2023-02-13T14:26:30.422Z,8.70
2023-02-13T14:27:38.640Z,8.60
2023-02-13T14:28:44.923Z,8.50
2023-02-13T14:29:50.017Z,8.40
2023-02-13T14:31:09.100Z,8.40
2023-02-13T14:32:28.114Z,8.80
2023-02-13T14:33:34.580Z,8.30
2023-02-13T14:34:41.599Z,8.30
2023-02-13T14:35:45.802Z,8.30
2023-02-13T14:37:20.826Z,8.10
2023-02-13T14:38:27.761Z,8.10
2023-02-13T14:39:35.944Z,7.90
2023-02-13T14:40:49.667Z,7.70
2023-02-13T14:42:01.927Z,7.70
2023-02-13T14:43:27.321Z,7.70
2023-02-13T14:44:38.003Z,7.80
2023-02-13T14:45:50.814Z,7.70
2023-02-13T14:46:57.210Z,7.70
2023-02-13T14:48:12.957Z,7.80
2023-02-13T14:49:26.532Z,7.90
2023-02-13T14:50:36.516Z,11.20
2023-02-13T14:51:49.432Z,8.30
2023-02-13T14:52:56.003Z,8.50
2023-02-13T14:54:06.694Z,8.70
2023-02-13T14:55:18.848Z,5.60
2023-02-13T14:56:24.765Z,8.80
2023-02-13T14:57:32.132Z,11.30
2023-02-13T14:58:50.326Z,9.20
2023-02-13T15:00:00.166Z,9.30
2023-02-13T15:01:09.234Z,13.40
2023-02-13T15:02:24.281Z,9.60
2023-02-13T15:03:38.377Z,11.80
2023-02-13T15:04:45.094Z,9.70
2023-02-13T15:05:54.148Z,9.70
2023-02-13T15:07:02.241Z,9.90
2023-02-13T15:08:15.099Z,9.90
2023-02-13T15:09:32.459Z,10.00
2023-02-13T15:10:44.259Z,9.90
2023-02-13T15:11:50.581Z,9.70
2023-02-13T15:12:59.420Z,6.00
2023-02-13T15:14:18.809Z,9.70
2023-02-13T15:15:28.195Z,8.00
2023-02-13T15:17:40.327Z,9.00
2023-02-13T15:18:52.686Z,8.70
2023-02-13T15:20:06.277Z,8.40
2023-02-13T15:21:16.722Z,8.50
2023-02-13T15:22:23.292Z,8.20
2023-02-13T15:23:30.347Z,8.10
2023-02-13T15:24:46.105Z,7.90
2023-02-13T15:25:58.653Z,9.30
2023-02-13T15:27:05.313Z,6.70
2023-02-13T15:28:18.378Z,3.90
2023-02-13T15:29:29.329Z,5.80
2023-02-13T15:30:37.603Z,7.60
2023-02-13T15:33:52.127Z,5.20
2023-02-13T15:34:55.920Z,10.30
2023-02-13T15:36:04.171Z,7.20
2023-02-13T15:37:07.789Z,7.30
2023-02-13T15:38:21.972Z,7.20
2023-02-13T15:40:37.588Z,7.20
2023-02-13T15:41:47.175Z,7.20
2023-02-13T15:42:51.069Z,7.20
2023-02-13T15:43:59.482Z,7.20
2023-02-13T15:46:21.769Z,7.10
2023-02-13T15:47:31.996Z,7.10
2023-02-13T15:48:39.807Z,7.10
2023-02-13T15:49:48.401Z,3.40
2023-02-13T15:50:53.377Z,7.00
2023-02-13T15:52:09.299Z,7.10
2023-02-13T15:53:19.556Z,7.10
2023-02-13T15:54:29.365Z,6.90
2023-02-13T15:55:36.905Z,6.90
2023-02-13T15:56:40.894Z,6.90
2023-02-13T15:57:45.168Z,7.00
2023-02-13T15:59:54.966Z,7.00
2023-02-13T16:01:04.251Z,7.00
2023-02-13T16:02:16.515Z,7.00
2023-02-13T16:03:21.859Z,7.00
2023-02-13T16:04:27.740Z,7.00
2023-02-13T16:05:41.322Z,7.00
2023-02-13T16:06:46.953Z,7.00
2023-02-13T16:07:53.214Z,6.90
2023-02-13T16:08:58.875Z,7.00
2023-02-13T16:11:28.922Z,7.00
2023-02-13T16:12:33.188Z,6.90
2023-02-13T16:13:36.689Z,10.80
2023-02-13T16:14:52.375Z,8.40
2023-02-13T16:15:56.224Z,6.90
2023-02-13T16:17:04.250Z,6.90
2023-02-13T16:18:21.357Z,6.90
2023-02-13T16:19:28.352Z,6.90
2023-02-13T16:20:38.478Z,6.80
2023-02-13T16:21:42.378Z,6.90
2023-02-13T16:22:49.038Z,6.90
2023-02-13T16:23:59.766Z,7.00
2023-02-13T16:25:18.349Z,6.90
2023-02-13T16:26:22.323Z,7.00
2023-02-13T16:27:29.312Z,7.00
2023-02-13T16:28:34.868Z,7.00
2023-02-13T16:29:38.440Z,6.90
2023-02-13T16:30:44.487Z,6.90
2023-02-13T16:31:48.963Z,6.90
2023-02-13T16:32:53.004Z,6.90
2023-02-13T16:33:56.841Z,6.90
2023-02-13T16:35:28.653Z,7.00
2023-02-13T16:36:36.192Z,6.90
2023-02-13T16:37:53.193Z,7.10
2023-02-13T16:38:59.467Z,7.00
2023-02-13T16:40:44.159Z,6.90
2023-02-13T16:41:48.140Z,6.90
2023-02-13T16:42:52.040Z,6.90
2023-02-13T16:43:57.871Z,6.90
2023-02-13T16:45:24.281Z,6.90
2023-02-13T16:46:37.776Z,6.90
2023-02-13T16:47:40.586Z,6.90
2023-02-13T16:48:46.888Z,6.80
2023-02-13T16:49:57.711Z,6.80
2023-02-13T16:51:01.325Z,6.80
2023-02-13T16:52:22.311Z,6.90